sensor_id;sensor_type;location;lat;lon;timestamp;pressure;altitude;pressure_sealevel;temperature;humidity
68320;BME280;55168;51.120;17.024;2023-03-31T00:00:00;99300;;;8.5;100.0
68320;BME280;55168;51.120;17.024;2023-03-31T00:01:00;99300;;;8.4;100.0
68320;BME280;55168;51.120;17.024;2023-03-31T00:02:00;99300;;;8.4;100.0
68320;BME280;55168;51.120;17.024;2023-03-31T00:03:00;99290;;;8.4;100.0
68320;BME280;55168;51.120;17.024;2023-03-31T00:04:00;99290;;;8.4;100.0
68320;BME280;55168;51.120;17.024;2023-03-31T00:05:00;99290;;;8.3;100.0
68320;BME280;55168;51.120;17.024;2023-03-31T00:06:00;99290;;;8.3;100.0
68320;BME280;55168;51.120;17.024;2023-03-31T00:07:00;99290;;;8.3;100.0
68320;BME280;55168;51.120;17.024;2023-03-31T00:08:00;99290;;;8.2;100.0
68320;BME280;55168;51.120;17.024;2023-03-31T00:09:00;99290;;;8.2;100.0
68320;BME280;55168;51.120;17.024;2023-03-31T00:10:00;99290;;;8.1;100.0
68320;BME280;55168;51.120;17.024;2023-03-31T00:11:01;99290;;;8.1;100.0
68320;BME280;55168;51.120;17.024;2023-03-31T00:12:00;99290;;;8.1;100.0
68320;BME280;55168;51.120;17.024;2023-03-31T00:13:00;99290;;;8.0;100.0
68320;BME280;55168;51.120;17.024;2023-03-31T00:14:00;99290;;;8.0;100.0
68320;BME280;55168;51.120;17.024;2023-03-31T00:15:00;99290;;;8.0;100.0
68320;BME280;55168;51.120;17.024;2023-03-31T00:16:02;99300;;;8.0;100.0
68320;BME280;55168;51.120;17.024;2023-03-31T00:17:00;99300;;;8.0;100.0
68320;BME280;55168;51.120;17.024;2023-03-31T00:18:00;99300;;;7.9;100.0
68320;BME280;55168;51.120;17.024;2023-03-31T00:19:00;99300;;;7.9;100.0
68320;BME280;55168;51.120;17.024;2023-03-31T00:20:00;99300;;;7.9;100.0
68320;BME280;55168;51.120;17.024;2023-03-31T00:21:08;99300;;;7.9;100.0
68320;BME280;55168;51.120;17.024;2023-03-31T00:22:00;99300;;;7.8;100.0
68320;BME280;55168;51.120;17.024;2023-03-31T00:23:00;99300;;;7.8;100.0
68320;BME280;55168;51.120;17.024;2023-03-31T00:24:01;99300;;;7.8;100.0
68320;BME280;55168;51.120;17.024;2023-03-31T00:25:00;99290;;;7.7;100.0
68320;BME280;55168;51.120;17.024;2023-03-31T00:26:00;99290;;;7.7;100.0
68320;BME280;55168;51.120;17.024;2023-03-31T00:27:00;99290;;;7.7;100.0
68320;BME280;55168;51.120;17.024;2023-03-31T00:28:00;99290;;;7.6;100.0
68320;BME280;55168;51.120;17.024;2023-03-31T00:29:00;99290;;;7.6;100.0
68320;BME280;55168;51.120;17.024;2023-03-31T00:30:00;99290;;;7.6;100.0
68320;BME280;55168;51.120;17.024;2023-03-31T00:31:01;99280;;;7.6;100.0
68320;BME280;55168;51.120;17.024;2023-03-31T00:32:00;99280;;;7.6;100.0
68320;BME280;55168;51.120;17.024;2023-03-31T00:33:00;99290;;;7.5;100.0
68320;BME280;55168;51.120;17.024;2023-03-31T00:34:00;99290;;;7.6;100.0
68320;BME280;55168;51.120;17.024;2023-03-31T00:35:00;99290;;;7.6;100.0
68320;BME280;55168;51.120;17.024;2023-03-31T00:36:00;99280;;;7.6;100.0
68320;BME280;55168;51.120;17.024;2023-03-31T00:37:00;99290;;;7.6;100.0
68320;BME280;55168;51.120;17.024;2023-03-31T00:38:00;99280;;;7.6;100.0
68320;BME280;55168;51.120;17.024;2023-03-31T00:39:00;99280;;;7.6;100.0
68320;BME280;55168;51.120;17.024;2023-03-31T00:40:00;99290;;;7.6;100.0
68320;BME280;55168;51.120;17.024;2023-03-31T00:41:00;99280;;;7.5;100.0
68320;BME280;55168;51.120;17.024;2023-03-31T00:42:02;99290;;;7.5;100.0
68320;BME280;55168;51.120;17.024;2023-03-31T00:43:00;99280;;;7.5;100.0
68320;BME280;55168;51.120;17.024;2023-03-31T00:44:04;99280;;;7.4;100.0
68320;BME280;55168;51.120;17.024;2023-03-31T00:46:03;99280;;;7.4;100.0
68320;BME280;55168;51.120;17.024;2023-03-31T00:47:04;99280;;;7.3;100.0
68320;BME280;55168;51.120;17.024;2023-03-31T00:48:02;99270;;;7.3;100.0
68320;BME280;55168;51.120;17.024;2023-03-31T00:49:00;99280;;;7.3;100.0
68320;BME280;55168;51.120;17.024;2023-03-31T00:50:00;99280;;;7.3;100.0
68320;BME280;55168;51.120;17.024;2023-03-31T00:51:01;99270;;;7.2;100.0
68320;BME280;55168;51.120;17.024;2023-03-31T00:52:04;99270;;;7.2;100.0
68320;BME280;55168;51.120;17.024;2023-03-31T00:53:02;99280;;;7.2;100.0
68320;BME280;55168;51.120;17.024;2023-03-31T00:54:00;99270;;;7.2;100.0
68320;BME280;55168;51.120;17.024;2023-03-31T00:55:02;99270;;;7.2;100.0
68320;BME280;55168;51.120;17.024;2023-03-31T00:56:01;99270;;;7.2;100.0
68320;BME280;55168;51.120;17.024;2023-03-31T00:57:00;99270;;;7.2;100.0
68320;BME280;55168;51.120;17.024;2023-03-31T00:58:00;99270;;;7.2;100.0
68320;BME280;55168;51.120;17.024;2023-03-31T00:59:01;99270;;;7.2;100.0
68320;BME280;55168;51.120;17.024;2023-03-31T01:00:01;99270;;;7.2;100.0
68320;BME280;55168;51.120;17.024;2023-03-31T01:01:00;99260;;;7.2;100.0
68320;BME280;55168;51.120;17.024;2023-03-31T01:02:00;99270;;;7.3;100.0
68320;BME280;55168;51.120;17.024;2023-03-31T01:03:01;99260;;;7.3;100.0
68320;BME280;55168;51.120;17.024;2023-03-31T01:04:01;99260;;;7.3;100.0
68320;BME280;55168;51.120;17.024;2023-03-31T01:05:00;99260;;;7.3;100.0
68320;BME280;55168;51.120;17.024;2023-03-31T01:06:01;99260;;;7.4;100.0
68320;BME280;55168;51.120;17.024;2023-03-31T01:07:09;99260;;;7.3;100.0
68320;BME280;55168;51.120;17.024;2023-03-31T01:08:00;99250;;;7.3;100.0
68320;BME280;55168;51.120;17.024;2023-03-31T01:09:00;99250;;;7.3;100.0
68320;BME280;55168;51.120;17.024;2023-03-31T01:10:01;99250;;;7.2;100.0
68320;BME280;55168;51.120;17.024;2023-03-31T01:11:00;99260;;;7.2;100.0
68320;BME280;55168;51.120;17.024;2023-03-31T01:12:01;99250;;;7.2;100.0
68320;BME280;55168;51.120;17.024;2023-03-31T01:13:00;99250;;;7.2;100.0
68320;BME280;55168;51.120;17.024;2023-03-31T01:14:00;99250;;;7.2;100.0
68320;BME280;55168;51.120;17.024;2023-03-31T01:15:00;99250;;;7.2;100.0
68320;BME280;55168;51.120;17.024;2023-03-31T01:16:00;99240;;;7.2;100.0
68320;BME280;55168;51.120;17.024;2023-03-31T01:17:00;99240;;;7.2;100.0
68320;BME280;55168;51.120;17.024;2023-03-31T01:18:00;99250;;;7.3;100.0
68320;BME280;55168;51.120;17.024;2023-03-31T01:19:00;99250;;;7.3;100.0
68320;BME280;55168;51.120;17.024;2023-03-31T01:25:06;99250;;;7.1;100.0
68320;BME280;55168;51.120;17.024;2023-03-31T01:33:08;99240;;;7.1;100.0
68320;BME280;55168;51.120;17.024;2023-03-31T01:36:05;99230;;;7.1;100.0
68320;BME280;55168;51.120;17.024;2023-03-31T01:39:05;99230;;;7.1;100.0
68320;BME280;55168;51.120;17.024;2023-03-31T01:40:05;99230;;;7.1;100.0
68320;BME280;55168;51.120;17.024;2023-03-31T01:42:06;99240;;;7.1;100.0
68320;BME280;55168;51.120;17.024;2023-03-31T01:46:01;99230;;;7.2;100.0
68320;BME280;55168;51.120;17.024;2023-03-31T01:47:05;99230;;;7.1;100.0
68320;BME280;55168;51.120;17.024;2023-03-31T01:49:13;99230;;;7.1;100.0
68320;BME280;55168;51.120;17.024;2023-03-31T01:50:01;99230;;;7.1;100.0
68320;BME280;55168;51.120;17.024;2023-03-31T01:51:01;99220;;;7.1;100.0
68320;BME280;55168;51.120;17.024;2023-03-31T01:52:10;99220;;;7.1;100.0
68320;BME280;55168;51.120;17.024;2023-03-31T01:53:02;99230;;;7.1;100.0
68320;BME280;55168;51.120;17.024;2023-03-31T01:54:04;99220;;;7.2;100.0
68320;BME280;55168;51.120;17.024;2023-03-31T01:56:03;99220;;;7.1;100.0
68320;BME280;55168;51.120;17.024;2023-03-31T01:57:04;99220;;;7.2;100.0
68320;BME280;55168;51.120;17.024;2023-03-31T02:01:03;99230;;;7.2;100.0
68320;BME280;55168;51.120;17.024;2023-03-31T02:02:02;99230;;;7.2;100.0
68320;BME280;55168;51.120;17.024;2023-03-31T02:03:09;99220;;;7.2;100.0
68320;BME280;55168;51.120;17.024;2023-03-31T02:04:02;99220;;;7.2;100.0
68320;BME280;55168;51.120;17.024;2023-03-31T02:05:01;99220;;;7.2;100.0
68320;BME280;55168;51.120;17.024;2023-03-31T02:06:04;99220;;;7.1;100.0
68320;BME280;55168;51.120;17.024;2023-03-31T02:07:06;99220;;;7.1;100.0
68320;BME280;55168;51.120;17.024;2023-03-31T02:08:03;99220;;;7.1;100.0
68320;BME280;55168;51.120;17.024;2023-03-31T02:09:01;99220;;;7.1;100.0
68320;BME280;55168;51.120;17.024;2023-03-31T02:10:00;99220;;;7.1;100.0
68320;BME280;55168;51.120;17.024;2023-03-31T02:11:00;99220;;;7.0;100.0
68320;BME280;55168;51.120;17.024;2023-03-31T02:12:01;99220;;;7.1;100.0
68320;BME280;55168;51.120;17.024;2023-03-31T02:13:00;99220;;;7.1;100.0
68320;BME280;55168;51.120;17.024;2023-03-31T02:14:00;99220;;;7.0;100.0
68320;BME280;55168;51.120;17.024;2023-03-31T02:15:01;99220;;;7.0;100.0
68320;BME280;55168;51.120;17.024;2023-03-31T02:16:01;99210;;;7.0;100.0
68320;BME280;55168;51.120;17.024;2023-03-31T02:17:00;99220;;;6.9;100.0
68320;BME280;55168;51.120;17.024;2023-03-31T02:18:00;99220;;;6.9;100.0
68320;BME280;55168;51.120;17.024;2023-03-31T02:19:00;99210;;;6.9;100.0
68320;BME280;55168;51.120;17.024;2023-03-31T02:20:02;99210;;;6.8;100.0
68320;BME280;55168;51.120;17.024;2023-03-31T02:21:00;99210;;;6.8;100.0
68320;BME280;55168;51.120;17.024;2023-03-31T02:22:00;99210;;;6.8;100.0
68320;BME280;55168;51.120;17.024;2023-03-31T02:23:00;99210;;;6.8;100.0
68320;BME280;55168;51.120;17.024;2023-03-31T02:24:01;99210;;;6.7;100.0
68320;BME280;55168;51.120;17.024;2023-03-31T02:25:00;99210;;;6.7;100.0
68320;BME280;55168;51.120;17.024;2023-03-31T02:26:01;99210;;;6.7;100.0
68320;BME280;55168;51.120;17.024;2023-03-31T02:27:05;99200;;;6.7;100.0
68320;BME280;55168;51.120;17.024;2023-03-31T02:28:01;99210;;;6.7;100.0
68320;BME280;55168;51.120;17.024;2023-03-31T02:29:00;99210;;;6.7;100.0
68320;BME280;55168;51.120;17.024;2023-03-31T02:30:00;99210;;;6.7;100.0
68320;BME280;55168;51.120;17.024;2023-03-31T02:33:00;99210;;;6.8;100.0
68320;BME280;55168;51.120;17.024;2023-03-31T02:34:00;99210;;;6.8;100.0
68320;BME280;55168;51.120;17.024;2023-03-31T02:35:00;99210;;;6.8;100.0
68320;BME280;55168;51.120;17.024;2023-03-31T02:36:00;99210;;;6.7;100.0
68320;BME280;55168;51.120;17.024;2023-03-31T02:37:00;99210;;;6.7;100.0
68320;BME280;55168;51.120;17.024;2023-03-31T02:38:00;99210;;;6.7;100.0
68320;BME280;55168;51.120;17.024;2023-03-31T02:39:02;99200;;;6.7;100.0
68320;BME280;55168;51.120;17.024;2023-03-31T02:40:02;99200;;;6.6;100.0
68320;BME280;55168;51.120;17.024;2023-03-31T02:41:00;99200;;;6.6;100.0
68320;BME280;55168;51.120;17.024;2023-03-31T02:42:00;99200;;;6.6;100.0
68320;BME280;55168;51.120;17.024;2023-03-31T02:43:00;99190;;;6.6;100.0
68320;BME280;55168;51.120;17.024;2023-03-31T02:44:00;99190;;;6.6;100.0
68320;BME280;55168;51.120;17.024;2023-03-31T02:45:01;99190;;;6.6;100.0
68320;BME280;55168;51.120;17.024;2023-03-31T02:46:00;99190;;;6.6;100.0
68320;BME280;55168;51.120;17.024;2023-03-31T02:47:01;99190;;;6.6;100.0
68320;BME280;55168;51.120;17.024;2023-03-31T02:48:00;99190;;;6.6;100.0
68320;BME280;55168;51.120;17.024;2023-03-31T02:49:00;99200;;;6.6;100.0
68320;BME280;55168;51.120;17.024;2023-03-31T02:50:00;99190;;;6.7;100.0
68320;BME280;55168;51.120;17.024;2023-03-31T02:51:04;99190;;;6.7;100.0
68320;BME280;55168;51.120;17.024;2023-03-31T02:52:04;99190;;;6.7;100.0
68320;BME280;55168;51.120;17.024;2023-03-31T02:53:02;99190;;;6.7;100.0
68320;BME280;55168;51.120;17.024;2023-03-31T02:58:04;99180;;;6.7;100.0
68320;BME280;55168;51.120;17.024;2023-03-31T03:03:12;99180;;;6.7;100.0
68320;BME280;55168;51.120;17.024;2023-03-31T03:05:11;99180;;;6.7;100.0
68320;BME280;55168;51.120;17.024;2023-03-31T03:08:06;99170;;;6.6;100.0
68320;BME280;55168;51.120;17.024;2023-03-31T03:10:03;99170;;;6.6;100.0
68320;BME280;55168;51.120;17.024;2023-03-31T03:11:03;99170;;;6.6;100.0
68320;BME280;55168;51.120;17.024;2023-03-31T03:13:17;99170;;;6.6;100.0
68320;BME280;55168;51.120;17.024;2023-03-31T03:15:02;99170;;;6.6;100.0
68320;BME280;55168;51.120;17.024;2023-03-31T03:16:02;99160;;;6.6;100.0
68320;BME280;55168;51.120;17.024;2023-03-31T03:17:01;99160;;;6.6;100.0
68320;BME280;55168;51.120;17.024;2023-03-31T03:18:00;99170;;;6.6;100.0
68320;BME280;55168;51.120;17.024;2023-03-31T03:19:01;99160;;;6.6;100.0
68320;BME280;55168;51.120;17.024;2023-03-31T03:20:01;99160;;;6.6;100.0
68320;BME280;55168;51.120;17.024;2023-03-31T03:21:00;99160;;;6.6;100.0
68320;BME280;55168;51.120;17.024;2023-03-31T03:22:00;99160;;;6.6;100.0
68320;BME280;55168;51.120;17.024;2023-03-31T03:23:00;99160;;;6.6;100.0
68320;BME280;55168;51.120;17.024;2023-03-31T03:24:00;99160;;;6.6;100.0
68320;BME280;55168;51.120;17.024;2023-03-31T03:25:00;99160;;;6.6;100.0
68320;BME280;55168;51.120;17.024;2023-03-31T03:26:00;99170;;;6.5;100.0
68320;BME280;55168;51.120;17.024;2023-03-31T03:27:00;99160;;;6.6;100.0
68320;BME280;55168;51.120;17.024;2023-03-31T03:28:00;99160;;;6.6;100.0
68320;BME280;55168;51.120;17.024;2023-03-31T03:29:00;99170;;;6.5;100.0
68320;BME280;55168;51.120;17.024;2023-03-31T03:30:00;99160;;;6.5;100.0
68320;BME280;55168;51.120;17.024;2023-03-31T03:31:00;99170;;;6.5;100.0
68320;BME280;55168;51.120;17.024;2023-03-31T03:32:00;99160;;;6.5;100.0
68320;BME280;55168;51.120;17.024;2023-03-31T03:33:00;99160;;;6.5;100.0
68320;BME280;55168;51.120;17.024;2023-03-31T03:34:00;99160;;;6.6;100.0
68320;BME280;55168;51.120;17.024;2023-03-31T03:35:00;99160;;;6.6;100.0
68320;BME280;55168;51.120;17.024;2023-03-31T03:36:00;99160;;;6.6;100.0
68320;BME280;55168;51.120;17.024;2023-03-31T03:37:00;99160;;;6.6;100.0
68320;BME280;55168;51.120;17.024;2023-03-31T03:38:00;99160;;;6.6;100.0
68320;BME280;55168;51.120;17.024;2023-03-31T03:39:00;99160;;;6.6;100.0
68320;BME280;55168;51.120;17.024;2023-03-31T03:40:00;99160;;;6.7;100.0
68320;BME280;55168;51.120;17.024;2023-03-31T03:41:00;99150;;;6.6;100.0
68320;BME280;55168;51.120;17.024;2023-03-31T03:42:00;99150;;;6.6;100.0
68320;BME280;55168;51.120;17.024;2023-03-31T03:43:00;99150;;;6.6;100.0
68320;BME280;55168;51.120;17.024;2023-03-31T03:44:00;99150;;;6.6;100.0
68320;BME280;55168;51.120;17.024;2023-03-31T03:45:00;99150;;;6.6;100.0
68320;BME280;55168;51.120;17.024;2023-03-31T03:46:00;99150;;;6.6;100.0
68320;BME280;55168;51.120;17.024;2023-03-31T03:47:00;99150;;;6.7;100.0
68320;BME280;55168;51.120;17.024;2023-03-31T03:48:00;99150;;;6.7;100.0
68320;BME280;55168;51.120;17.024;2023-03-31T03:49:00;99150;;;6.7;100.0
68320;BME280;55168;51.120;17.024;2023-03-31T03:50:00;99150;;;6.7;100.0
68320;BME280;55168;51.120;17.024;2023-03-31T03:51:00;99150;;;6.8;100.0
68320;BME280;55168;51.120;17.024;2023-03-31T03:52:00;99150;;;6.8;100.0
68320;BME280;55168;51.120;17.024;2023-03-31T03:53:00;99150;;;6.8;100.0
68320;BME280;55168;51.120;17.024;2023-03-31T03:54:00;99150;;;6.8;100.0
68320;BME280;55168;51.120;17.024;2023-03-31T03:55:00;99150;;;6.8;100.0
68320;BME280;55168;51.120;17.024;2023-03-31T03:56:00;99150;;;6.8;100.0
68320;BME280;55168;51.120;17.024;2023-03-31T03:57:00;99150;;;6.8;100.0
68320;BME280;55168;51.120;17.024;2023-03-31T03:58:00;99150;;;6.8;100.0
68320;BME280;55168;51.120;17.024;2023-03-31T03:59:00;99150;;;6.8;100.0
68320;BME280;55168;51.120;17.024;2023-03-31T04:00:00;99150;;;6.8;100.0
68320;BME280;55168;51.120;17.024;2023-03-31T04:01:00;99140;;;6.8;100.0
68320;BME280;55168;51.120;17.024;2023-03-31T04:02:00;99150;;;6.8;100.0
68320;BME280;55168;51.120;17.024;2023-03-31T04:03:00;99150;;;6.8;100.0
68320;BME280;55168;51.120;17.024;2023-03-31T04:04:00;99150;;;6.8;100.0
68320;BME280;55168;51.120;17.024;2023-03-31T04:05:00;99150;;;6.7;100.0
68320;BME280;55168;51.120;17.024;2023-03-31T04:06:00;99150;;;6.7;100.0
68320;BME280;55168;51.120;17.024;2023-03-31T04:07:00;99140;;;6.7;100.0
68320;BME280;55168;51.120;17.024;2023-03-31T04:08:00;99140;;;6.6;100.0
68320;BME280;55168;51.120;17.024;2023-03-31T04:09:00;99140;;;6.5;100.0
68320;BME280;55168;51.120;17.024;2023-03-31T04:10:00;99140;;;6.5;100.0
68320;BME280;55168;51.120;17.024;2023-03-31T04:11:00;99140;;;6.5;100.0
68320;BME280;55168;51.120;17.024;2023-03-31T04:12:00;99140;;;6.5;100.0
68320;BME280;55168;51.120;17.024;2023-03-31T04:13:00;99140;;;6.5;100.0
68320;BME280;55168;51.120;17.024;2023-03-31T04:14:00;99140;;;6.5;100.0
68320;BME280;55168;51.120;17.024;2023-03-31T04:15:00;99140;;;6.5;100.0
68320;BME280;55168;51.120;17.024;2023-03-31T04:16:00;99130;;;6.6;100.0
68320;BME280;55168;51.120;17.024;2023-03-31T04:17:00;99140;;;6.6;100.0
68320;BME280;55168;51.120;17.024;2023-03-31T04:18:00;99130;;;6.6;100.0
68320;BME280;55168;51.120;17.024;2023-03-31T04:19:00;99130;;;6.6;100.0
68320;BME280;55168;51.120;17.024;2023-03-31T04:20:00;99130;;;6.6;100.0
68320;BME280;55168;51.120;17.024;2023-03-31T04:21:00;99130;;;6.6;100.0
68320;BME280;55168;51.120;17.024;2023-03-31T04:22:00;99130;;;6.6;100.0
68320;BME280;55168;51.120;17.024;2023-03-31T04:23:00;99130;;;6.6;100.0
68320;BME280;55168;51.120;17.024;2023-03-31T04:24:00;99130;;;6.6;100.0
68320;BME280;55168;51.120;17.024;2023-03-31T04:25:01;99130;;;6.5;100.0
68320;BME280;55168;51.120;17.024;2023-03-31T04:26:00;99130;;;6.5;100.0
68320;BME280;55168;51.120;17.024;2023-03-31T04:27:00;99120;;;6.5;100.0
68320;BME280;55168;51.120;17.024;2023-03-31T04:28:00;99130;;;6.6;100.0
68320;BME280;55168;51.120;17.024;2023-03-31T04:29:00;99130;;;6.6;100.0
68320;BME280;55168;51.120;17.024;2023-03-31T04:30:00;99130;;;6.6;100.0
68320;BME280;55168;51.120;17.024;2023-03-31T04:31:00;99120;;;6.6;100.0
68320;BME280;55168;51.120;17.024;2023-03-31T04:32:00;99120;;;6.6;100.0
68320;BME280;55168;51.120;17.024;2023-03-31T04:33:00;99120;;;6.6;100.0
68320;BME280;55168;51.120;17.024;2023-03-31T04:34:00;99120;;;6.6;100.0
68320;BME280;55168;51.120;17.024;2023-03-31T04:35:00;99120;;;6.6;100.0
68320;BME280;55168;51.120;17.024;2023-03-31T04:36:00;99120;;;6.6;100.0
68320;BME280;55168;51.120;17.024;2023-03-31T04:37:00;99120;;;6.7;100.0
68320;BME280;55168;51.120;17.024;2023-03-31T04:38:00;99120;;;6.7;100.0
68320;BME280;55168;51.120;17.024;2023-03-31T04:39:00;99120;;;6.7;100.0
68320;BME280;55168;51.120;17.024;2023-03-31T04:40:00;99120;;;6.7;100.0
68320;BME280;55168;51.120;17.024;2023-03-31T04:41:00;99120;;;6.7;100.0
68320;BME280;55168;51.120;17.024;2023-03-31T04:42:00;99110;;;6.7;100.0
68320;BME280;55168;51.120;17.024;2023-03-31T04:43:00;99110;;;6.7;100.0
68320;BME280;55168;51.120;17.024;2023-03-31T04:44:00;99110;;;6.7;100.0
68320;BME280;55168;51.120;17.024;2023-03-31T04:45:00;99100;;;6.6;100.0
68320;BME280;55168;51.120;17.024;2023-03-31T04:46:00;99100;;;6.6;100.0
68320;BME280;55168;51.120;17.024;2023-03-31T04:47:00;99100;;;6.6;100.0
68320;BME280;55168;51.120;17.024;2023-03-31T04:48:00;99100;;;6.6;100.0
68320;BME280;55168;51.120;17.024;2023-03-31T04:49:00;99100;;;6.7;100.0
68320;BME280;55168;51.120;17.024;2023-03-31T04:50:00;99100;;;6.7;100.0
68320;BME280;55168;51.120;17.024;2023-03-31T04:51:00;99090;;;6.8;100.0
68320;BME280;55168;51.120;17.024;2023-03-31T04:52:00;99090;;;6.8;100.0
68320;BME280;55168;51.120;17.024;2023-03-31T04:53:00;99090;;;6.9;100.0
68320;BME280;55168;51.120;17.024;2023-03-31T04:54:00;99090;;;7.0;100.0
68320;BME280;55168;51.120;17.024;2023-03-31T04:55:00;99090;;;7.1;100.0
68320;BME280;55168;51.120;17.024;2023-03-31T04:56:00;99100;;;7.1;100.0
68320;BME280;55168;51.120;17.024;2023-03-31T04:57:00;99090;;;7.2;100.0
68320;BME280;55168;51.120;17.024;2023-03-31T04:58:00;99090;;;7.1;100.0
68320;BME280;55168;51.120;17.024;2023-03-31T04:59:00;99090;;;7.1;100.0
68320;BME280;55168;51.120;17.024;2023-03-31T05:00:00;99090;;;7.2;100.0
68320;BME280;55168;51.120;17.024;2023-03-31T05:01:00;99090;;;7.2;100.0
68320;BME280;55168;51.120;17.024;2023-03-31T05:02:00;99090;;;7.3;100.0
68320;BME280;55168;51.120;17.024;2023-03-31T05:03:00;99090;;;7.4;100.0
68320;BME280;55168;51.120;17.024;2023-03-31T05:04:00;99090;;;7.5;100.0
68320;BME280;55168;51.120;17.024;2023-03-31T05:05:00;99090;;;7.7;100.0
68320;BME280;55168;51.120;17.024;2023-03-31T05:06:00;99080;;;7.9;100.0
68320;BME280;55168;51.120;17.024;2023-03-31T05:07:00;99080;;;8.0;100.0
68320;BME280;55168;51.120;17.024;2023-03-31T05:08:00;99080;;;8.1;100.0
68320;BME280;55168;51.120;17.024;2023-03-31T05:09:00;99080;;;8.3;100.0
68320;BME280;55168;51.120;17.024;2023-03-31T05:10:00;99080;;;8.4;100.0
68320;BME280;55168;51.120;17.024;2023-03-31T05:11:01;99070;;;8.5;100.0
68320;BME280;55168;51.120;17.024;2023-03-31T05:12:00;99080;;;8.7;100.0
68320;BME280;55168;51.120;17.024;2023-03-31T05:13:00;99080;;;8.8;100.0
68320;BME280;55168;51.120;17.024;2023-03-31T05:14:00;99080;;;8.9;100.0
68320;BME280;55168;51.120;17.024;2023-03-31T05:15:00;99080;;;8.9;100.0
68320;BME280;55168;51.120;17.024;2023-03-31T05:16:15;99070;;;8.8;100.0
68320;BME280;55168;51.120;17.024;2023-03-31T05:17:00;99080;;;8.8;100.0
68320;BME280;55168;51.120;17.024;2023-03-31T05:18:00;99080;;;8.8;100.0
68320;BME280;55168;51.120;17.024;2023-03-31T05:19:00;99080;;;8.9;100.0
68320;BME280;55168;51.120;17.024;2023-03-31T05:20:00;99080;;;8.9;100.0
68320;BME280;55168;51.120;17.024;2023-03-31T05:21:08;99080;;;9.1;100.0
68320;BME280;55168;51.120;17.024;2023-03-31T05:22:00;99080;;;9.2;100.0
68320;BME280;55168;51.120;17.024;2023-03-31T05:23:00;99080;;;9.3;100.0
68320;BME280;55168;51.120;17.024;2023-03-31T05:24:00;99080;;;9.4;100.0
68320;BME280;55168;51.120;17.024;2023-03-31T05:25:00;99080;;;9.6;100.0
68320;BME280;55168;51.120;17.024;2023-03-31T05:26:00;99080;;;9.6;100.0
68320;BME280;55168;51.120;17.024;2023-03-31T05:27:00;99070;;;9.8;100.0
68320;BME280;55168;51.120;17.024;2023-03-31T05:28:00;99070;;;10.0;100.0
68320;BME280;55168;51.120;17.024;2023-03-31T05:29:00;99070;;;10.1;100.0
68320;BME280;55168;51.120;17.024;2023-03-31T05:30:00;99070;;;10.3;100.0
68320;BME280;55168;51.120;17.024;2023-03-31T05:31:00;99070;;;10.5;100.0
68320;BME280;55168;51.120;17.024;2023-03-31T05:32:00;99070;;;10.8;100.0
68320;BME280;55168;51.120;17.024;2023-03-31T05:33:00;99070;;;11.0;100.0
68320;BME280;55168;51.120;17.024;2023-03-31T05:34:00;99070;;;11.2;100.0
68320;BME280;55168;51.120;17.024;2023-03-31T05:35:00;99070;;;11.3;100.0
68320;BME280;55168;51.120;17.024;2023-03-31T05:36:00;99060;;;11.4;100.0
68320;BME280;55168;51.120;17.024;2023-03-31T05:37:00;99060;;;11.3;100.0
68320;BME280;55168;51.120;17.024;2023-03-31T05:38:00;99060;;;11.2;100.0
68320;BME280;55168;51.120;17.024;2023-03-31T05:39:00;99060;;;11.3;100.0
68320;BME280;55168;51.120;17.024;2023-03-31T05:40:00;99060;;;11.6;100.0
68320;BME280;55168;51.120;17.024;2023-03-31T05:41:00;99060;;;11.6;100.0
68320;BME280;55168;51.120;17.024;2023-03-31T05:42:00;99060;;;11.4;100.0
68320;BME280;55168;51.120;17.024;2023-03-31T05:43:00;99060;;;11.5;100.0
68320;BME280;55168;51.120;17.024;2023-03-31T05:44:00;99060;;;11.6;100.0
68320;BME280;55168;51.120;17.024;2023-03-31T05:45:00;99060;;;11.6;100.0
68320;BME280;55168;51.120;17.024;2023-03-31T05:46:00;99060;;;11.7;100.0
68320;BME280;55168;51.120;17.024;2023-03-31T05:47:00;99060;;;11.9;100.0
68320;BME280;55168;51.120;17.024;2023-03-31T05:48:00;99060;;;12.0;100.0
68320;BME280;55168;51.120;17.024;2023-03-31T05:49:00;99060;;;11.9;100.0
68320;BME280;55168;51.120;17.024;2023-03-31T05:50:00;99060;;;12.2;100.0
68320;BME280;55168;51.120;17.024;2023-03-31T05:51:00;99060;;;12.2;100.0
68320;BME280;55168;51.120;17.024;2023-03-31T05:52:00;99060;;;12.2;100.0
68320;BME280;55168;51.120;17.024;2023-03-31T05:53:00;99060;;;12.6;100.0
68320;BME280;55168;51.120;17.024;2023-03-31T05:54:00;99060;;;12.9;100.0
68320;BME280;55168;51.120;17.024;2023-03-31T05:55:00;99060;;;13.0;100.0
68320;BME280;55168;51.120;17.024;2023-03-31T05:56:01;99060;;;13.4;100.0
68320;BME280;55168;51.120;17.024;2023-03-31T05:57:00;99050;;;13.7;100.0
68320;BME280;55168;51.120;17.024;2023-03-31T05:58:00;99060;;;14.0;100.0
68320;BME280;55168;51.120;17.024;2023-03-31T05:59:00;99050;;;14.1;100.0
68320;BME280;55168;51.120;17.024;2023-03-31T06:00:00;99050;;;14.2;100.0
68320;BME280;55168;51.120;17.024;2023-03-31T06:01:01;99050;;;14.4;100.0
68320;BME280;55168;51.120;17.024;2023-03-31T06:02:01;99050;;;14.6;100.0
68320;BME280;55168;51.120;17.024;2023-03-31T06:03:00;99050;;;14.9;100.0
68320;BME280;55168;51.120;17.024;2023-03-31T06:04:00;99050;;;14.5;100.0
68320;BME280;55168;51.120;17.024;2023-03-31T06:05:00;99040;;;14.6;100.0
68320;BME280;55168;51.120;17.024;2023-03-31T06:06:00;99040;;;14.3;100.0
68320;BME280;55168;51.120;17.024;2023-03-31T06:07:00;99040;;;14.6;100.0
68320;BME280;55168;51.120;17.024;2023-03-31T06:08:00;99040;;;14.7;100.0
68320;BME280;55168;51.120;17.024;2023-03-31T06:09:00;99040;;;15.0;100.0
68320;BME280;55168;51.120;17.024;2023-03-31T06:10:00;99040;;;15.3;100.0
68320;BME280;55168;51.120;17.024;2023-03-31T06:11:03;99040;;;15.4;100.0
68320;BME280;55168;51.120;17.024;2023-03-31T06:12:00;99030;;;15.5;100.0
68320;BME280;55168;51.120;17.024;2023-03-31T06:13:00;99030;;;15.1;100.0
68320;BME280;55168;51.120;17.024;2023-03-31T06:14:00;99030;;;15.2;100.0
68320;BME280;55168;51.120;17.024;2023-03-31T06:15:00;99030;;;15.4;100.0
68320;BME280;55168;51.120;17.024;2023-03-31T06:16:00;99030;;;15.2;100.0